createdAt,value
2017-11-22T00:00:34.740Z,11.18
2017-11-22T00:01:40.462Z,10.55
2017-11-22T00:02:46.185Z,10.90
2017-11-22T00:03:52.693Z,11.43
2017-11-22T00:04:58.410Z,10.90
2017-11-22T00:06:04.135Z,11.50
2017-11-22T00:07:09.881Z,11.98
2017-11-22T00:08:15.602Z,12.27
2017-11-22T00:09:22.156Z,10.88
2017-11-22T00:10:27.859Z,10.23
2017-11-22T00:11:33.586Z,10.18
2017-11-22T00:12:39.322Z,10.00
2017-11-22T00:13:45.256Z,11.10
2017-11-22T00:14:51.003Z,11.05
2017-11-22T00:15:56.736Z,11.85
2017-11-22T00:17:02.458Z,11.05
2017-11-22T00:18:09.242Z,10.63
2017-11-22T00:19:14.987Z,11.38
2017-11-22T00:20:20.737Z,11.43
2017-11-22T00:21:26.458Z,11.20
2017-11-22T00:22:32.182Z,10.45
2017-11-22T00:23:38.671Z,12.20
2017-11-22T00:24:44.421Z,11.75
2017-11-22T00:25:50.171Z,11.05
2017-11-22T00:26:55.889Z,11.35
2017-11-22T00:28:01.635Z,11.90
2017-11-22T00:29:07.354Z,12.07
2017-11-22T00:30:13.080Z,11.25
2017-11-22T00:31:19.815Z,12.25
2017-11-22T00:32:25.539Z,11.45
2017-11-22T00:33:31.255Z,12.48
2017-11-22T00:34:36.981Z,11.15
2017-11-22T00:35:43.470Z,12.40
2017-11-22T00:36:49.228Z,11.35
2017-11-22T00:37:54.949Z,12.40
2017-11-22T00:39:00.671Z,13.23
2017-11-22T00:40:06.395Z,11.10
2017-11-22T00:41:12.885Z,11.98
2017-11-22T00:42:18.636Z,13.32
2017-11-22T00:43:24.358Z,12.98
2017-11-22T00:44:30.078Z,12.60
2017-11-22T00:45:36.561Z,11.77
2017-11-22T00:46:42.282Z,12.27
2017-11-22T00:47:48.030Z,12.55
2017-11-22T00:48:53.803Z,12.68
2017-11-22T00:49:59.521Z,13.13
2017-11-22T00:51:05.249Z,13.15
2017-11-22T00:52:11.953Z,13.25
2017-11-22T00:53:17.716Z,12.98
2017-11-22T00:54:23.437Z,13.43
2017-11-22T00:55:29.166Z,14.68
2017-11-22T00:56:34.881Z,13.13
2017-11-22T00:57:40.598Z,12.82
2017-11-22T00:58:47.108Z,14.30
2017-11-22T00:59:52.838Z,11.52
2017-11-22T01:00:58.563Z,12.60
2017-11-22T01:02:04.284Z,12.25
2017-11-22T01:03:10.784Z,12.57
2017-11-22T01:04:16.537Z,12.75
2017-11-22T01:05:22.279Z,11.65
2017-11-22T01:06:28.009Z,12.93
2017-11-22T01:07:33.756Z,12.80
2017-11-22T01:08:39.481Z,12.50
2017-11-22T01:09:45.231Z,12.52
2017-11-22T01:10:51.015Z,12.93
2017-11-22T01:11:58.260Z,13.30
2017-11-22T01:13:03.785Z,12.30
2017-11-22T01:14:09.518Z,12.07
2017-11-22T01:15:15.261Z,12.43
2017-11-22T01:16:20.993Z,13.25
2017-11-22T01:17:26.712Z,13.95
2017-11-22T01:18:33.202Z,13.25
2017-11-22T01:19:38.930Z,13.25
2017-11-22T01:20:44.704Z,13.55
2017-11-22T01:21:50.422Z,13.60
2017-11-22T01:22:56.166Z,13.35
2017-11-22T01:24:01.634Z,13.93
2017-11-22T01:25:07.361Z,10.93
2017-11-22T01:26:13.118Z,11.75
2017-11-22T01:27:18.919Z,11.55
2017-11-22T01:28:24.702Z,10.05
2017-11-22T01:29:30.428Z,12.13
2017-11-22T01:30:36.161Z,11.50
2017-11-22T01:31:41.900Z,12.37
2017-11-22T01:32:47.625Z,11.00
2017-11-22T01:33:53.346Z,11.75
2017-11-22T01:34:59.502Z,11.27
2017-11-22T01:36:05.218Z,11.73
2017-11-22T01:37:11.618Z,11.10
2017-11-22T01:38:17.335Z,11.25
2017-11-22T01:39:23.823Z,11.05
2017-11-22T01:40:29.538Z,12.10
2017-11-22T01:41:35.292Z,11.55
2017-11-22T01:42:41.039Z,12.85
2017-11-22T01:43:46.821Z,12.02
2017-11-22T01:44:52.567Z,11.68
2017-11-22T01:45:57.966Z,10.90
2017-11-22T01:47:03.121Z,12.02
2017-11-22T01:48:08.596Z,11.23
2017-11-22T01:49:14.411Z,11.48
2017-11-22T01:50:20.199Z,10.73
2017-11-22T01:51:25.914Z,11.05
2017-11-22T01:52:32.405Z,11.18
2017-11-22T01:53:38.152Z,10.23
2017-11-22T01:54:43.882Z,10.43
2017-11-22T01:55:49.614Z,11.40
2017-11-22T01:56:55.330Z,11.07
2017-11-22T01:58:01.611Z,10.90
2017-11-22T01:59:07.357Z,10.63
2017-11-22T02:00:13.080Z,10.88
2017-11-22T02:01:18.801Z,10.73
2017-11-22T02:02:24.651Z,10.10
2017-11-22T02:03:31.173Z,11.18
2017-11-22T02:04:36.920Z,10.95
2017-11-22T02:05:42.629Z,10.20
2017-11-22T02:06:48.360Z,10.70
2017-11-22T02:07:54.067Z,9.32
2017-11-22T02:08:59.780Z,9.73
2017-11-22T02:10:05.520Z,9.82
2017-11-22T02:11:11.238Z,8.75
2017-11-22T02:12:16.988Z,9.05
2017-11-22T02:13:22.882Z,8.32
2017-11-22T02:14:28.598Z,8.70
2017-11-22T02:15:34.320Z,8.27
2017-11-22T02:16:40.023Z,8.55
2017-11-22T02:17:46.491Z,9.20
2017-11-22T02:18:52.229Z,8.52
2017-11-22T02:19:58.075Z,10.23
2017-11-22T02:21:04.331Z,7.85
2017-11-22T02:22:09.403Z,9.20
2017-11-22T02:23:15.119Z,8.32
2017-11-22T02:24:20.822Z,7.68
2017-11-22T02:25:27.295Z,9.43
2017-11-22T02:26:33.017Z,7.80
2017-11-22T02:27:39.497Z,8.02
2017-11-22T02:28:45.197Z,8.23
2017-11-22T02:29:50.914Z,8.18
2017-11-22T02:30:55.982Z,8.07
2017-11-22T02:32:02.154Z,9.15
2017-11-22T02:33:07.844Z,8.35
2017-11-22T02:34:12.920Z,8.70
2017-11-22T02:35:18.294Z,9.23
2017-11-22T02:36:23.681Z,8.50
2017-11-22T02:37:29.711Z,8.38
2017-11-22T02:38:36.203Z,8.45
2017-11-22T02:39:41.923Z,7.55
2017-11-22T02:40:48.604Z,8.88
2017-11-22T02:41:54.297Z,7.85
2017-11-22T02:43:00.076Z,8.20
2017-11-22T02:44:05.824Z,7.82
2017-11-22T02:45:11.531Z,8.13
2017-11-22T02:46:17.238Z,6.95
2017-11-22T02:47:22.947Z,7.75
2017-11-22T02:48:28.678Z,7.22
2017-11-22T02:49:35.163Z,7.60
2017-11-22T02:50:40.859Z,8.07
2017-11-22T02:51:47.346Z,8.18
2017-11-22T02:52:53.176Z,8.25
2017-11-22T02:53:58.568Z,7.95
2017-11-22T02:55:04.279Z,6.68
2017-11-22T02:56:09.361Z,7.72
2017-11-22T02:57:15.169Z,8.02
2017-11-22T02:58:20.872Z,6.53
2017-11-22T02:59:26.601Z,6.78
2017-11-22T03:00:33.055Z,6.70
2017-11-22T03:01:39.517Z,6.68
2017-11-22T03:02:45.275Z,8.68
2017-11-22T03:03:50.978Z,7.05
2017-11-22T03:04:57.469Z,7.18
2017-11-22T03:06:03.174Z,7.20
2017-11-22T03:07:09.639Z,6.85
2017-11-22T03:08:15.775Z,6.80
2017-11-22T03:09:21.471Z,7.60
2017-11-22T03:10:26.994Z,6.60
2017-11-22T03:11:32.694Z,7.68
2017-11-22T03:12:38.410Z,6.78
2017-11-22T03:13:44.114Z,7.00
2017-11-22T03:14:49.615Z,6.00
2017-11-22T03:15:56.101Z,6.70
2017-11-22T03:17:01.807Z,6.40
2017-11-22T03:18:07.503Z,6.75
2017-11-22T03:19:13.201Z,6.62
2017-11-22T03:20:19.658Z,6.47
2017-11-22T03:21:26.153Z,6.62
2017-11-22T03:22:31.852Z,6.65
2017-11-22T03:23:38.324Z,7.10
2017-11-22T03:24:44.784Z,6.10
2017-11-22T03:25:51.251Z,6.95
2017-11-22T03:26:56.978Z,6.47
2017-11-22T03:28:03.457Z,6.00
2017-11-22T03:29:09.158Z,5.62
2017-11-22T03:30:16.359Z,5.97
2017-11-22T03:31:22.071Z,6.80
2017-11-22T03:32:27.795Z,7.12
2017-11-22T03:33:33.502Z,6.62
2017-11-22T03:34:39.211Z,6.00
2017-11-22T03:35:44.778Z,6.43
2017-11-22T03:36:49.619Z,6.60
2017-11-22T03:37:55.343Z,6.93
2017-11-22T03:39:01.042Z,7.45
2017-11-22T03:40:07.226Z,6.78
2017-11-22T03:41:12.912Z,6.55
2017-11-22T03:42:18.613Z,6.03
2017-11-22T03:43:24.345Z,5.80
2017-11-22T03:44:30.046Z,6.85
2017-11-22T03:45:35.738Z,6.35
2017-11-22T03:46:41.456Z,6.07
2017-11-22T03:47:48.186Z,5.47
2017-11-22T03:48:59.693Z,5.20
2017-11-22T03:50:10.410Z,6.62
2017-11-22T03:51:21.150Z,6.78
2017-11-22T03:52:32.302Z,5.72
2017-11-22T03:53:43.022Z,5.60
2017-11-22T03:54:49.538Z,7.15
2017-11-22T03:55:55.254Z,6.18
2017-11-22T03:57:00.945Z,6.05
2017-11-22T03:58:06.704Z,5.85
2017-11-22T03:59:12.970Z,5.00
2017-11-22T04:00:17.892Z,5.53
2017-11-22T04:01:24.217Z,5.30
2017-11-22T04:02:30.711Z,6.50
2017-11-22T04:03:38.214Z,5.50
2017-11-22T04:04:43.933Z,5.62
2017-11-22T04:05:55.174Z,5.93
2017-11-22T04:07:01.655Z,5.37
2017-11-22T04:08:08.285Z,5.28
2017-11-22T04:09:13.990Z,5.03
2017-11-22T04:10:19.697Z,4.60
2017-11-22T04:11:30.047Z,4.03
2017-11-22T04:12:35.765Z,4.75
2017-11-22T04:13:42.244Z,5.05
2017-11-22T04:14:47.947Z,3.90
2017-11-22T04:15:53.341Z,5.12
2017-11-22T04:16:59.069Z,4.78
2017-11-22T04:18:04.770Z,5.30
2017-11-22T04:19:15.763Z,4.87
2017-11-22T04:20:26.823Z,4.35
2017-11-22T04:21:33.289Z,4.40
2017-11-22T04:22:40.337Z,3.85
2017-11-22T04:23:46.816Z,4.37
2017-11-22T04:24:52.519Z,4.53
2017-11-22T04:25:59.749Z,4.57
2017-11-22T04:27:05.446Z,3.87
2017-11-22T04:28:11.946Z,3.78
2017-11-22T04:29:17.649Z,3.90
2017-11-22T04:30:24.147Z,3.95
2017-11-22T04:31:30.047Z,4.28
2017-11-22T04:32:36.521Z,4.30
2017-11-22T04:33:43.008Z,4.43
2017-11-22T04:34:48.517Z,4.20
2017-11-22T04:35:54.241Z,4.37
2017-11-22T04:37:00.853Z,3.58
2017-11-22T04:38:06.545Z,3.55
2017-11-22T04:39:13.047Z,4.35
2017-11-22T04:40:18.752Z,4.37
2017-11-22T04:41:25.221Z,4.78
2017-11-22T04:42:31.745Z,4.32
2017-11-22T04:43:37.110Z,3.80
2017-11-22T04:44:43.682Z,4.47
2017-11-22T04:45:49.062Z,4.45
2017-11-22T04:46:54.128Z,5.40
2017-11-22T04:47:59.935Z,3.83
2017-11-22T04:49:05.327Z,4.00
2017-11-22T04:50:11.054Z,5.78
2017-11-22T04:51:16.758Z,4.28
2017-11-22T04:52:22.460Z,4.70
2017-11-22T04:53:28.373Z,4.57
2017-11-22T04:54:34.850Z,6.05
2017-11-22T04:55:40.582Z,5.25
2017-11-22T04:56:46.274Z,4.55
2017-11-22T04:57:51.984Z,6.20
2017-11-22T04:58:57.686Z,5.20
2017-11-22T05:00:03.859Z,5.00
2017-11-22T05:01:09.428Z,4.75
2017-11-22T05:02:15.134Z,5.07
2017-11-22T05:03:20.846Z,5.20
2017-11-22T05:04:26.543Z,5.40
2017-11-22T05:05:32.247Z,5.62
2017-11-22T05:06:37.973Z,7.10
2017-11-22T05:07:44.439Z,6.35
2017-11-22T05:08:50.910Z,5.65
2017-11-22T05:09:56.611Z,5.50
2017-11-22T05:11:01.770Z,6.97
2017-11-22T05:12:07.502Z,6.37
2017-11-22T05:13:13.990Z,5.85
2017-11-22T05:14:19.686Z,4.90
2017-11-22T05:15:25.480Z,5.85
2017-11-22T05:16:31.222Z,6.55
2017-11-22T05:17:36.954Z,5.60
2017-11-22T05:18:42.682Z,6.35
2017-11-22T05:19:48.271Z,6.22
2017-11-22T05:20:53.981Z,8.00
2017-11-22T05:21:59.802Z,6.80
2017-11-22T05:23:05.538Z,5.25
2017-11-22T05:24:11.405Z,5.97
2017-11-22T05:25:17.098Z,6.28
2017-11-22T05:26:22.801Z,7.40
2017-11-22T05:27:28.817Z,6.20
2017-11-22T05:28:34.864Z,9.75
2017-11-22T05:29:40.650Z,7.30
2017-11-22T05:30:46.425Z,5.87
2017-11-22T05:31:52.210Z,5.90
2017-11-22T05:32:57.969Z,6.60
2017-11-22T05:34:03.818Z,7.35
2017-11-22T05:35:09.604Z,8.18
2017-11-22T05:36:16.807Z,7.15
2017-11-22T05:37:22.582Z,6.90
2017-11-22T05:38:29.989Z,8.93
2017-11-22T05:39:35.854Z,6.82
2017-11-22T05:40:42.451Z,6.50
2017-11-22T05:41:48.252Z,6.87
2017-11-22T05:42:54.734Z,6.10
2017-11-22T05:44:00.525Z,9.35
2017-11-22T05:45:07.171Z,7.07
2017-11-22T05:46:13.753Z,7.20
2017-11-22T05:47:20.956Z,7.47
2017-11-22T05:48:27.519Z,7.40
2017-11-22T05:49:33.429Z,7.25
2017-11-22T05:50:39.716Z,7.22
2017-11-22T05:51:45.455Z,7.22
2017-11-22T05:52:51.250Z,9.05
2017-11-22T05:53:58.487Z,7.72
2017-11-22T05:55:03.908Z,6.55
2017-11-22T05:56:10.130Z,6.80
2017-11-22T05:57:15.384Z,9.07
2017-11-22T05:58:20.993Z,8.50
2017-11-22T05:59:26.699Z,8.27
2017-11-22T06:00:37.915Z,8.13
2017-11-22T06:01:44.512Z,7.70
2017-11-22T06:02:50.261Z,8.32
2017-11-22T06:03:56.393Z,9.93
2017-11-22T06:05:02.122Z,7.00
2017-11-22T06:06:08.955Z,8.40
2017-11-22T06:07:14.743Z,7.18
2017-11-22T06:08:20.493Z,7.55
2017-11-22T06:09:26.200Z,7.20
2017-11-22T06:10:31.916Z,8.63
2017-11-22T06:11:37.642Z,10.10
2017-11-22T06:12:43.680Z,8.90
2017-11-22T06:13:49.378Z,8.60
2017-11-22T06:14:55.846Z,7.43
2017-11-22T06:16:02.326Z,7.62
2017-11-22T06:17:08.127Z,8.20
2017-11-22T06:18:14.019Z,8.75
2017-11-22T06:19:19.842Z,7.95
2017-11-22T06:20:25.639Z,7.10
2017-11-22T06:21:31.370Z,9.18
2017-11-22T06:22:37.238Z,7.25
2017-11-22T06:23:43.030Z,8.60
2017-11-22T06:24:48.761Z,7.25
2017-11-22T06:25:54.697Z,11.27
2017-11-22T06:27:00.433Z,8.32
2017-11-22T06:28:07.102Z,7.80
2017-11-22T06:29:12.908Z,7.85
2017-11-22T06:30:24.977Z,8.43
2017-11-22T06:31:30.901Z,7.47
2017-11-22T06:32:36.648Z,7.18
2017-11-22T06:33:42.425Z,7.90
2017-11-22T06:34:48.354Z,8.23
2017-11-22T06:35:54.088Z,7.35
2017-11-22T06:36:59.954Z,8.60
2017-11-22T06:38:06.484Z,7.93
2017-11-22T06:39:12.218Z,8.45
2017-11-22T06:40:18.090Z,8.35
2017-11-22T06:41:23.908Z,8.60
2017-11-22T06:42:29.378Z,7.75
2017-11-22T06:43:35.160Z,7.82
2017-11-22T06:44:40.918Z,8.48
2017-11-22T06:45:46.675Z,8.48
2017-11-22T06:46:52.949Z,7.40
2017-11-22T06:47:58.737Z,8.45
2017-11-22T06:49:04.479Z,8.70
2017-11-22T06:50:10.296Z,7.97
2017-11-22T06:51:16.829Z,7.15
2017-11-22T06:52:22.695Z,9.27
2017-11-22T06:53:29.295Z,8.20
2017-11-22T06:54:35.010Z,7.62
2017-11-22T06:55:41.486Z,7.72
2017-11-22T06:56:47.262Z,7.53
2017-11-22T06:57:54.078Z,7.25
2017-11-22T06:59:00.138Z,7.82
2017-11-22T07:00:06.403Z,8.48
2017-11-22T07:01:12.250Z,7.50
2017-11-22T07:02:20.511Z,7.62
2017-11-22T07:05:00.497Z,7.62
2017-11-22T07:06:06.347Z,6.95
2017-11-22T07:07:12.069Z,6.65
2017-11-22T07:08:17.842Z,7.68
2017-11-22T07:09:23.553Z,7.00
2017-11-22T07:10:29.351Z,7.50
2017-11-22T07:11:35.050Z,8.27
2017-11-22T07:12:41.094Z,6.70
2017-11-22T07:13:46.834Z,7.55
2017-11-22T07:14:52.541Z,6.60
2017-11-22T07:15:59.015Z,7.68
2017-11-22T07:17:10.846Z,6.85
2017-11-22T07:18:16.855Z,8.27
2017-11-22T07:19:23.724Z,7.57
2017-11-22T07:20:29.667Z,8.00
2017-11-22T07:21:35.606Z,7.30
2017-11-22T07:22:41.544Z,8.35
2017-11-22T07:23:47.578Z,7.50
2017-11-22T07:24:54.176Z,7.37
2017-11-22T07:26:00.006Z,8.10
2017-11-22T07:27:06.120Z,6.32
2017-11-22T07:28:11.877Z,6.65
2017-11-22T07:29:17.715Z,7.45
2017-11-22T07:30:24.351Z,6.85
2017-11-22T07:31:30.146Z,7.00
2017-11-22T07:32:36.693Z,6.15
2017-11-22T07:33:42.780Z,7.82
2017-11-22T07:34:48.885Z,6.65
2017-11-22T07:36:01.102Z,6.82
2017-11-22T07:37:12.476Z,7.72
2017-11-22T07:38:18.378Z,7.00
2017-11-22T07:39:24.136Z,6.87
2017-11-22T07:40:30.582Z,6.28
2017-11-22T07:41:36.567Z,6.95
2017-11-22T07:42:42.601Z,6.95
2017-11-22T07:43:49.137Z,6.93
2017-11-22T07:44:55.073Z,8.10
2017-11-22T07:46:00.849Z,7.32
2017-11-22T07:47:12.315Z,7.85
2017-11-22T07:48:19.042Z,7.22
2017-11-22T07:49:24.946Z,6.60
2017-11-22T07:50:30.726Z,6.68
2017-11-22T07:51:42.099Z,6.15
2017-11-22T07:52:47.640Z,7.25
2017-11-22T07:53:53.541Z,6.53
2017-11-22T07:54:59.347Z,7.22
2017-11-22T07:56:06.722Z,7.60
2017-11-22T07:57:12.422Z,6.95
2017-11-22T07:58:18.302Z,6.68
2017-11-22T07:59:24.283Z,6.60
2017-11-22T08:00:30.497Z,7.43
2017-11-22T08:01:36.357Z,7.50
2017-11-22T08:02:43.133Z,6.40
2017-11-22T08:03:49.954Z,7.47
2017-11-22T08:04:55.666Z,6.37
2017-11-22T08:06:01.384Z,7.30
2017-11-22T08:07:07.249Z,6.20
2017-11-22T08:08:13.264Z,6.65
2017-11-22T08:09:19.815Z,8.95
2017-11-22T08:10:25.580Z,7.45
2017-11-22T08:11:32.228Z,6.25
2017-11-22T08:12:39.844Z,6.90
2017-11-22T08:13:45.618Z,7.10
2017-11-22T08:14:51.644Z,6.57
2017-11-22T08:15:57.684Z,7.35
2017-11-22T08:17:03.681Z,7.72
2017-11-22T08:18:09.435Z,7.80
2017-11-22T08:19:16.047Z,6.45
2017-11-22T08:20:21.824Z,6.03
2017-11-22T08:21:27.620Z,6.25
2017-11-22T08:22:33.219Z,5.70
2017-11-22T08:23:39.070Z,6.75
2017-11-22T08:24:45.571Z,6.62
2017-11-22T08:25:58.426Z,6.25
2017-11-22T08:27:04.122Z,5.82
2017-11-22T08:28:09.817Z,7.00
2017-11-22T08:29:15.515Z,6.40
2017-11-22T08:30:21.432Z,6.12
2017-11-22T08:31:27.210Z,6.00
2017-11-22T08:32:32.709Z,7.10
2017-11-22T08:33:38.656Z,7.00
2017-11-22T08:34:44.671Z,6.20
2017-11-22T08:35:51.381Z,6.95
2017-11-22T08:36:57.312Z,6.43
2017-11-22T08:38:03.359Z,6.07
2017-11-22T08:39:09.135Z,6.22
2017-11-22T08:40:15.040Z,6.60
2017-11-22T08:41:27.345Z,6.32
2017-11-22T08:42:33.092Z,5.72
2017-11-22T08:43:45.082Z,6.25
2017-11-22T08:44:50.834Z,6.47
2017-11-22T08:45:56.675Z,8.07
2017-11-22T08:47:02.499Z,5.87
2017-11-22T08:48:08.654Z,6.20
2017-11-22T08:49:14.394Z,5.95
2017-11-22T08:50:20.124Z,5.50
2017-11-22T08:51:26.610Z,5.32
2017-11-22T08:52:33.503Z,6.10
2017-11-22T08:53:39.266Z,6.25
2017-11-22T08:54:50.358Z,6.80
2017-11-22T08:56:02.201Z,6.68
2017-11-22T08:57:13.256Z,6.25
2017-11-22T08:58:19.466Z,5.75
2017-11-22T08:59:25.201Z,5.90
2017-11-22T09:00:32.674Z,5.78
2017-11-22T09:01:39.246Z,6.90
2017-11-22T09:02:46.063Z,6.45
2017-11-22T09:03:51.768Z,6.00
2017-11-22T09:04:57.504Z,6.30
2017-11-22T09:06:08.581Z,6.32
2017-11-22T09:07:14.340Z,6.05
2017-11-22T09:08:20.076Z,6.80
2017-11-22T09:09:25.881Z,5.95
2017-11-22T09:10:32.454Z,6.05
2017-11-22T09:11:41.102Z,6.05
2017-11-22T09:12:52.157Z,7.03
2017-11-22T09:13:58.027Z,6.68
2017-11-22T09:15:05.858Z,6.37
2017-11-22T09:16:11.800Z,7.00
2017-11-22T09:17:20.113Z,6.20
2017-11-22T09:18:31.431Z,11.85
2017-11-22T09:19:39.997Z,7.72
2017-11-22T09:20:45.769Z,7.40
2017-11-22T09:21:51.639Z,6.60
2017-11-22T09:22:58.242Z,7.15
2017-11-22T09:25:43.507Z,5.57
2017-11-22T09:26:50.271Z,6.75
2017-11-22T09:27:56.902Z,6.15
2017-11-22T09:29:02.640Z,7.43
2017-11-22T09:30:14.182Z,6.53
2017-11-22T09:31:25.421Z,6.93
2017-11-22T09:32:33.093Z,7.40
2017-11-22T09:33:39.935Z,7.15
2017-11-22T09:34:50.992Z,7.65
2017-11-22T09:35:56.994Z,7.20
2017-11-22T09:37:02.796Z,8.13
2017-11-22T09:38:08.618Z,6.37
2017-11-22T09:39:14.352Z,6.85
2017-11-22T09:40:20.182Z,7.68
2017-11-22T09:41:26.826Z,6.82
2017-11-22T09:42:32.661Z,6.50
2017-11-22T09:43:39.222Z,6.93
2017-11-22T09:44:45.992Z,6.80
2017-11-22T09:45:51.894Z,6.50
2017-11-22T09:46:58.393Z,6.62
2017-11-22T09:48:04.095Z,6.45
2017-11-22T09:49:09.806Z,6.25
2017-11-22T09:50:15.538Z,6.07
2017-11-22T09:51:21.257Z,6.10
2017-11-22T09:52:26.957Z,6.40
2017-11-22T09:53:32.657Z,7.60
2017-11-22T09:54:38.172Z,7.05
2017-11-22T09:55:43.762Z,6.55
2017-11-22T09:56:49.653Z,6.82
2017-11-22T09:57:55.443Z,7.35
2017-11-22T09:59:02.115Z,6.28
2017-11-22T10:00:07.998Z,5.95
2017-11-22T10:01:14.774Z,5.93
2017-11-22T10:02:20.817Z,6.20
2017-11-22T10:03:26.572Z,5.45
2017-11-22T10:04:32.275Z,5.87
2017-11-22T10:05:38.793Z,5.45
2017-11-22T10:06:44.514Z,6.10
2017-11-22T10:07:50.228Z,5.60
2017-11-22T10:08:55.685Z,5.73
2017-11-22T10:10:01.143Z,6.23
2017-11-22T10:11:06.893Z,6.20
2017-11-22T10:12:12.639Z,6.30
2017-11-22T10:13:18.342Z,6.10
2017-11-22T10:14:24.181Z,6.00
2017-11-22T10:15:30.009Z,6.62
2017-11-22T10:16:35.833Z,5.40
2017-11-22T10:17:42.744Z,5.40
2017-11-22T10:18:48.653Z,5.70
2017-11-22T10:19:59.729Z,5.28
2017-11-22T10:21:05.455Z,6.35
2017-11-22T10:22:12.182Z,5.03
2017-11-22T10:23:23.585Z,5.25
2017-11-22T10:24:33.250Z,6.03
2017-11-22T10:25:42.073Z,6.28
2017-11-22T10:26:53.438Z,5.85
2017-11-22T10:28:04.894Z,5.53
2017-11-22T10:29:13.274Z,5.80
2017-11-22T10:30:20.599Z,5.72
2017-11-22T10:31:26.774Z,5.65
2017-11-22T10:32:34.652Z,5.40
2017-11-22T10:33:40.685Z,6.15
2017-11-22T10:34:47.363Z,5.68
2017-11-22T10:35:53.092Z,5.85
2017-11-22T10:36:58.970Z,6.60
2017-11-22T10:38:04.980Z,6.70
2017-11-22T10:39:10.755Z,5.53
2017-11-22T10:40:16.361Z,5.45
2017-11-22T10:41:22.084Z,5.93
2017-11-22T10:42:28.647Z,6.30
2017-11-22T10:43:35.382Z,5.40
2017-11-22T10:44:41.865Z,5.78
2017-11-22T10:45:47.727Z,6.35
2017-11-22T10:46:53.553Z,6.00
2017-11-22T10:48:00.114Z,6.10
2017-11-22T10:49:06.689Z,6.60
2017-11-22T10:50:12.585Z,5.40
2017-11-22T10:51:18.325Z,6.00
2017-11-22T10:52:24.038Z,6.95
2017-11-22T10:53:29.860Z,5.62
2017-11-22T10:54:35.965Z,6.07
2017-11-22T10:55:42.180Z,5.70
2017-11-22T10:56:47.501Z,5.78
2017-11-22T10:57:52.817Z,6.05
2017-11-22T10:58:58.766Z,6.12
2017-11-22T11:00:04.005Z,6.12
2017-11-22T11:01:09.992Z,5.97
2017-11-22T11:02:16.170Z,5.70
2017-11-22T11:03:21.910Z,6.95
2017-11-22T11:04:28.422Z,6.45
2017-11-22T11:05:34.444Z,6.25
2017-11-22T11:06:40.288Z,6.37
2017-11-22T11:07:46.834Z,6.85
2017-11-22T11:08:53.378Z,6.68
2017-11-22T11:09:59.184Z,6.60
2017-11-22T11:11:05.166Z,6.15
2017-11-22T11:12:11.802Z,6.00
2017-11-22T11:13:17.908Z,5.85
2017-11-22T11:14:23.855Z,6.95
2017-11-22T11:15:30.979Z,6.65
2017-11-22T11:16:37.921Z,7.80
2017-11-22T11:17:43.808Z,6.50
2017-11-22T11:18:49.648Z,7.10
2017-11-22T11:19:56.350Z,5.93
2017-11-22T11:21:02.127Z,6.15
2017-11-22T11:22:07.932Z,6.60
2017-11-22T11:23:13.813Z,6.78
2017-11-22T11:24:19.957Z,6.22
2017-11-22T11:25:25.981Z,6.37
2017-11-22T11:26:32.034Z,9.32
2017-11-22T11:27:37.853Z,6.60
2017-11-22T11:28:44.742Z,5.93
2017-11-22T11:29:50.487Z,8.35
2017-11-22T11:30:56.738Z,7.03
2017-11-22T11:32:02.441Z,6.55
2017-11-22T11:33:08.138Z,6.85
2017-11-22T11:34:13.855Z,7.10
2017-11-22T11:35:18.691Z,5.70
2017-11-22T11:36:34.212Z,7.30
2017-11-22T11:37:39.924Z,7.03
2017-11-22T11:38:44.952Z,6.57
2017-11-22T11:39:50.319Z,6.65
2017-11-22T11:40:56.603Z,7.05
2017-11-22T11:42:02.404Z,6.45
2017-11-22T11:43:08.103Z,6.28
2017-11-22T11:44:13.998Z,6.85
2017-11-22T11:45:20.479Z,6.10
2017-11-22T11:46:25.896Z,7.15
2017-11-22T11:47:32.402Z,7.43
2017-11-22T11:48:38.126Z,6.40
2017-11-22T11:49:43.839Z,6.65
2017-11-22T11:50:49.853Z,6.80
2017-11-22T11:51:55.788Z,6.90
2017-11-22T11:53:01.792Z,7.53
2017-11-22T11:54:07.510Z,7.90
2017-11-22T11:55:13.999Z,7.97
2017-11-22T11:56:19.492Z,7.93
2017-11-22T11:57:25.371Z,6.95
2017-11-22T11:58:31.262Z,8.20
2017-11-22T11:59:37.004Z,7.43
2017-11-22T12:00:42.259Z,7.53
2017-11-22T12:01:47.452Z,6.87
2017-11-22T12:02:53.463Z,8.43
2017-11-22T12:03:59.279Z,7.37
2017-11-22T12:05:04.999Z,6.90
2017-11-22T12:06:10.760Z,8.18
2017-11-22T12:07:17.458Z,7.60
2017-11-22T12:08:23.403Z,7.32
2017-11-22T12:09:29.497Z,7.55
2017-11-22T12:10:35.494Z,7.25
2017-11-22T12:11:41.518Z,7.78
2017-11-22T12:12:48.415Z,7.32
2017-11-22T12:13:54.363Z,8.75
2017-11-22T12:15:00.160Z,8.32
2017-11-22T12:16:06.805Z,7.07
2017-11-22T12:17:12.873Z,7.43
2017-11-22T12:18:18.941Z,7.22
2017-11-22T12:19:25.769Z,8.68
2017-11-22T12:20:32.424Z,8.70
2017-11-22T12:21:40.458Z,7.18
2017-11-22T12:22:51.859Z,7.55
2017-11-22T12:24:04.196Z,7.80
2017-11-22T12:25:10.017Z,7.80
2017-11-22T12:26:15.960Z,8.38
2017-11-22T12:27:21.881Z,7.72
2017-11-22T12:28:27.744Z,7.80
2017-11-22T12:29:33.776Z,8.55
2017-11-22T12:30:39.746Z,8.07
2017-11-22T12:31:45.659Z,7.75
2017-11-22T12:32:51.455Z,8.20
2017-11-22T12:33:57.330Z,8.90
2017-11-22T12:35:04.028Z,7.43
2017-11-22T12:36:10.150Z,7.72
2017-11-22T12:37:16.754Z,7.82
2017-11-22T12:38:24.419Z,8.05
2017-11-22T12:39:30.294Z,7.25
2017-11-22T12:40:36.061Z,8.70
2017-11-22T12:41:42.253Z,7.87
2017-11-22T12:42:49.145Z,8.02
2017-11-22T12:43:55.368Z,8.35
2017-11-22T12:45:01.595Z,9.00
2017-11-22T12:46:08.090Z,8.15
2017-11-22T12:47:13.827Z,8.35
2017-11-22T12:48:19.391Z,8.10
2017-11-22T12:49:25.526Z,8.70
2017-11-22T12:50:31.623Z,8.50
2017-11-22T12:51:38.634Z,9.20
2017-11-22T12:52:44.888Z,8.68
2017-11-22T12:53:50.935Z,7.18
2017-11-22T12:54:57.084Z,7.43
2017-11-22T12:56:03.204Z,8.35
2017-11-22T12:57:10.033Z,7.30
2017-11-22T12:58:16.139Z,8.68
2017-11-22T12:59:21.996Z,8.23
2017-11-22T13:00:27.864Z,7.95
2017-11-22T13:01:33.575Z,8.70
2017-11-22T13:02:40.056Z,7.85
2017-11-22T13:03:46.105Z,9.63
2017-11-22T13:04:52.138Z,7.43
2017-11-22T13:05:58.303Z,8.05
2017-11-22T13:07:04.417Z,9.52
2017-11-22T13:08:10.560Z,9.40
2017-11-22T13:09:16.742Z,8.25
2017-11-22T13:10:27.529Z,9.27
2017-11-22T13:11:41.885Z,8.75
2017-11-22T13:12:47.607Z,8.63
2017-11-22T13:13:53.335Z,8.73
2017-11-22T13:14:59.089Z,8.32
2017-11-22T13:16:04.792Z,9.00
2017-11-22T13:17:11.262Z,8.35
2017-11-22T13:18:16.996Z,9.70
2017-11-22T13:19:23.513Z,9.02
2017-11-22T13:20:29.240Z,7.85
2017-11-22T13:21:34.949Z,8.35
2017-11-22T13:22:40.847Z,7.22
2017-11-22T13:23:46.565Z,8.80
2017-11-22T13:24:51.996Z,8.65
2017-11-22T13:25:57.402Z,7.68
2017-11-22T13:27:03.139Z,9.23
2017-11-22T13:28:08.981Z,8.77
2017-11-22T13:29:14.724Z,9.20
2017-11-22T13:30:20.122Z,9.30
2017-11-22T13:31:25.969Z,8.82
2017-11-22T13:32:42.284Z,9.80
2017-11-22T13:33:48.081Z,9.80
2017-11-22T13:34:53.842Z,9.65
2017-11-22T13:36:01.455Z,9.30
2017-11-22T13:37:06.787Z,11.55
2017-11-22T13:38:12.629Z,10.30
2017-11-22T13:39:18.822Z,9.77
2017-11-22T13:40:25.182Z,9.98
2017-11-22T13:41:30.754Z,9.60
2017-11-22T13:42:39.667Z,8.95
2017-11-22T13:43:45.942Z,10.30
2017-11-22T13:44:52.547Z,8.93
2017-11-22T13:45:57.977Z,10.23
2017-11-22T13:47:03.882Z,7.70
2017-11-22T13:48:09.492Z,8.30
2017-11-22T13:49:15.948Z,9.10
2017-11-22T13:50:22.490Z,8.55
2017-11-22T13:51:29.051Z,9.13
2017-11-22T13:52:34.509Z,9.00
2017-11-22T13:53:40.704Z,7.75
2017-11-22T13:54:45.516Z,7.62
2017-11-22T13:55:51.049Z,8.63
2017-11-22T13:56:56.579Z,8.90
2017-11-22T13:58:03.445Z,7.85
2017-11-22T13:59:09.553Z,8.23
2017-11-22T14:00:16.468Z,7.72
2017-11-22T14:01:21.662Z,9.00
2017-11-22T14:02:27.579Z,7.70
2017-11-22T14:03:33.575Z,7.93
2017-11-22T14:04:40.080Z,8.55
2017-11-22T14:05:45.876Z,8.13
2017-11-22T14:06:52.233Z,8.13
2017-11-22T14:07:57.923Z,8.27
2017-11-22T14:09:03.714Z,7.90
2017-11-22T14:10:10.198Z,8.15
2017-11-22T14:11:15.802Z,8.13
2017-11-22T14:12:21.751Z,7.28
2017-11-22T14:13:28.159Z,7.30
2017-11-22T14:14:34.878Z,6.75
2017-11-22T14:15:41.436Z,8.07
2017-11-22T14:16:47.761Z,6.90
2017-11-22T14:17:55.014Z,8.02
2017-11-22T14:19:00.635Z,6.53
2017-11-22T14:20:09.043Z,8.13
2017-11-22T14:21:14.944Z,8.32
2017-11-22T14:22:21.429Z,8.00
2017-11-22T14:23:27.044Z,7.30
2017-11-22T14:24:33.854Z,8.45
2017-11-22T14:25:40.961Z,8.48
2017-11-22T14:26:47.875Z,8.60
2017-11-22T14:27:54.401Z,8.00
2017-11-22T14:29:00.878Z,8.30
2017-11-22T14:30:08.373Z,8.50
2017-11-22T14:31:13.664Z,7.80
2017-11-22T14:32:20.472Z,8.43
2017-11-22T14:33:27.044Z,8.13
2017-11-22T14:34:32.434Z,9.02
2017-11-22T14:35:38.368Z,7.80
2017-11-22T14:36:43.777Z,6.93
2017-11-22T14:37:49.390Z,8.48
2017-11-22T14:38:55.126Z,7.97
2017-11-22T14:40:00.618Z,7.70
2017-11-22T14:41:06.038Z,7.97